Time;durP1;ratioP1;P1;durP2;ratioP2;P2;SDS_P1;SDS_P2;PMS_P1;PMS_P2;Temp;Humidity;BMP_temperature;BMP_pressure;BME280_temperature;BME280_humidity;BME280_pressure;Samples;Min_cycle;Max_cycle;Signal;HPM_P1;HPM_P2
2022/10/11 00:00:15;;;;;;;9.10;2.43;;;8.90;99.90;;;;;;5032762;28;20196;-90
2022/10/11 00:02:42;;;;;;;9.37;2.50;;;8.90;99.90;;;;;;5021439;28;20219;-90
2022/10/11 00:05:09;;;;;;;7.53;2.43;;;9.00;99.90;;;;;;5032798;28;20214;-90
2022/10/11 00:07:37;;;;;;;8.50;2.40;;;8.90;99.90;;;;;;5031869;28;20210;-89
2022/10/11 00:10:05;;;;;;;8.37;2.23;;;8.90;99.90;;;;;;5031500;28;20204;-91
2022/10/11 00:12:32;;;;;;;10.40;2.43;;;8.80;99.90;;;;;;5032696;28;20223;-90
2022/10/11 00:14:59;;;;;;;7.03;2.67;;;8.80;99.90;;;;;;5032220;28;20219;-90
2022/10/11 00:17:27;;;;;;;11.37;2.73;;;8.80;99.90;;;;;;5032483;28;20208;-90
2022/10/11 00:19:54;;;;;;;11.90;2.40;;;8.80;99.90;;;;;;5030330;28;20208;-89
2022/10/11 00:22:21;;;;;;;8.37;2.90;;;8.90;99.90;;;;;;5029839;28;20479;-90
2022/10/11 00:24:48;;;;;;;15.03;3.10;;;8.80;99.90;;;;;;5030064;28;20215;-89
2022/10/11 00:27:14;;;;;;;9.00;2.77;;;8.80;99.90;;;;;;5031459;28;20211;-89
2022/10/11 00:29:41;;;;;;;9.77;3.20;;;8.90;99.90;;;;;;5030983;28;20511;-89
2022/10/11 00:32:08;;;;;;;11.97;3.33;;;8.90;99.90;;;;;;5031763;28;20576;-89
2022/10/11 00:34:39;;;;;;;12.77;2.93;;;8.90;99.90;;;;;;5032179;28;20224;-90
2022/10/11 00:37:06;;;;;;;14.07;3.60;;;8.90;99.90;;;;;;5032371;28;20683;-91
2022/10/11 00:39:33;;;;;;;8.97;3.50;;;9.10;99.90;;;;;;5032048;28;20210;-90
2022/10/11 00:42:00;;;;;;;15.43;3.80;;;9.00;99.90;;;;;;5031882;28;20661;-90
2022/10/11 00:44:29;;;;;;;13.83;3.63;;;9.00;99.90;;;;;;5031821;28;20219;-90
2022/10/11 00:46:59;;;;;;;11.27;3.70;;;9.10;99.90;;;;;;5031926;28;20291;-89
2022/10/11 00:49:33;;;;;;;19.10;5.73;;;9.00;99.90;;;;;;5032181;28;20204;-89
2022/10/11 00:52:06;;;;;;;7.13;3.20;;;9.00;99.90;;;;;;5032269;28;20199;-89
2022/10/11 00:54:36;;;;;;;7.33;3.20;;;8.80;99.90;;;;;;5032086;28;20223;-89
2022/10/11 00:57:06;;;;;;;11.03;3.23;;;8.80;99.90;;;;;;5031583;28;20235;-90
2022/10/11 00:59:37;;;;;;;13.50;4.47;;;8.90;99.90;;;;;;5032209;28;20207;-89
2022/10/11 01:02:04;;;;;;;9.63;3.67;;;8.90;99.90;;;;;;5031674;28;20230;-90
2022/10/11 01:04:31;;;;;;;11.90;3.50;;;8.90;99.90;;;;;;5032220;28;20285;-90
2022/10/11 01:06:58;;;;;;;12.73;3.83;;;8.80;99.90;;;;;;5031909;28;20207;-89
2022/10/11 01:09:27;;;;;;;11.17;3.87;;;8.90;99.90;;;;;;5031662;28;20208;-88
2022/10/11 01:11:58;;;;;;;11.03;3.47;;;8.70;99.90;;;;;;5031726;28;20207;-89
2022/10/11 01:14:50;;;;;;;11.47;3.37;;;8.80;99.90;;;;;;5012150;28;20589;-90
2022/10/11 01:17:24;;;;;;;10.67;3.23;;;8.80;99.90;;;;;;5022145;28;20206;-88
2022/10/11 01:20:11;;;;;;;11.17;3.60;;;8.70;99.90;;;;;;5031324;28;20209;-89
2022/10/11 01:25:31;;;;;;;10.63;3.57;;;8.80;99.90;;;;;;5053341;28;20215;-84
2022/10/11 01:28:22;;;;;;;12.43;3.63;;;8.80;99.90;;;;;;5050253;28;20227;-84
2022/10/11 01:30:52;;;;;;;12.07;3.27;;;8.70;99.90;;;;;;5054657;28;20203;-84
2022/10/11 01:33:27;;;;;;;10.63;3.80;;;8.70;99.90;;;;;;5053828;28;20809;-84
2022/10/11 01:36:02;;;;;;;13.87;3.53;;;8.60;99.90;;;;;;5054861;28;20193;-84
2022/10/11 01:38:35;;;;;;;11.27;3.83;;;8.50;99.90;;;;;;5054133;28;20222;-84
2022/10/11 01:41:07;;;;;;;14.63;4.33;;;8.50;99.90;;;;;;5054677;28;20662;-84
2022/10/11 01:43:35;;;;;;;16.83;4.67;;;8.60;99.90;;;;;;5054066;28;20195;-84
2022/10/11 01:46:05;;;;;;;17.93;6.87;;;8.60;99.90;;;;;;5055231;28;20214;-84
2022/10/11 01:48:31;;;;;;;24.80;8.33;;;8.60;99.90;;;;;;5054619;28;20222;-84
2022/10/11 01:51:01;;;;;;;16.70;6.10;;;8.60;99.90;;;;;;5055581;28;20203;-83
2022/10/11 01:53:46;;;;;;;16.90;7.00;;;8.50;99.90;;;;;;5055009;28;20677;-84
2022/10/11 01:56:26;;;;;;;17.90;8.57;;;8.40;99.90;;;;;;5055565;28;20202;-83
2022/10/11 01:59:08;;;;;;;18.40;8.60;;;8.50;99.90;;;;;;5054835;28;20655;-84
2022/10/11 02:01:53;;;;;;;18.80;8.20;;;8.50;99.90;;;;;;5051147;28;20630;-83
2022/10/11 02:04:30;;;;;;;21.37;7.73;;;8.40;99.90;;;;;;5037730;28;20188;-83
2022/10/11 02:07:02;;;;;;;17.30;8.27;;;8.40;99.90;;;;;;5050703;28;20670;-83
2022/10/11 02:09:34;;;;;;;15.47;7.70;;;8.40;99.90;;;;;;5049839;28;20557;-85
2022/10/11 02:12:06;;;;;;;17.67;6.80;;;8.40;99.90;;;;;;5035899;28;20208;-84
2022/10/11 02:14:38;;;;;;;18.20;7.60;;;8.40;99.90;;;;;;5037795;28;20294;-84
2022/10/11 02:17:10;;;;;;;15.00;7.33;;;8.40;99.90;;;;;;5037801;28;20218;-83
2022/10/11 02:19:42;;;;;;;18.40;7.67;;;8.30;99.90;;;;;;5037336;28;20577;-84
2022/10/11 02:22:14;;;;;;;17.00;5.80;;;8.30;99.90;;;;;;5044990;28;20693;-84
2022/10/11 02:24:44;;;;;;;16.37;6.00;;;8.20;99.90;;;;;;5056705;28;20217;-84
2022/10/11 02:27:12;;;;;;;13.23;5.90;;;8.10;99.90;;;;;;5056952;28;20241;-84
2022/10/11 02:29:43;;;;;;;14.90;5.80;;;8.10;99.90;;;;;;5058407;28;20199;-83
2022/10/11 02:32:12;;;;;;;11.87;4.90;;;8.10;99.90;;;;;;5055603;28;20187;-83
2022/10/11 02:34:44;;;;;;;11.93;6.30;;;8.10;99.90;;;;;;5035730;28;20715;-84
2022/10/11 02:37:19;;;;;;;17.83;5.10;;;8.00;99.90;;;;;;5034357;28;20228;-83
2022/10/11 02:39:49;;;;;;;16.43;4.63;;;8.00;99.90;;;;;;5036692;28;20195;-84
2022/10/11 02:42:25;;;;;;;11.53;3.73;;;8.00;99.90;;;;;;5037339;28;20192;-84
2022/10/11 02:44:59;;;;;;;11.93;4.03;;;8.10;99.90;;;;;;5035870;28;20191;-84
2022/10/11 02:47:29;;;;;;;9.57;4.10;;;8.10;99.90;;;;;;5034519;28;20657;-84
2022/10/11 02:49:56;;;;;;;15.33;4.87;;;8.10;99.90;;;;;;5037726;28;20287;-84
2022/10/11 02:52:23;;;;;;;10.97;3.97;;;8.00;99.90;;;;;;5039334;28;20212;-84
2022/10/11 02:54:49;;;;;;;14.10;4.00;;;7.90;99.90;;;;;;5036949;28;20219;-84
2022/10/11 02:57:16;;;;;;;10.33;3.57;;;7.90;99.90;;;;;;5037771;28;20215;-83
2022/10/11 02:59:43;;;;;;;14.30;4.53;;;7.90;99.90;;;;;;5038032;28;20226;-84
2022/10/11 03:02:10;;;;;;;10.17;3.40;;;7.80;99.90;;;;;;5046972;28;20206;-83
2022/10/11 03:04:38;;;;;;;10.53;3.30;;;7.70;99.90;;;;;;5036509;28;20196;-83
2022/10/11 03:07:05;;;;;;;12.43;3.23;;;7.70;99.90;;;;;;5036434;28;20219;-83
2022/10/11 03:09:32;;;;;;;12.03;3.63;;;7.60;99.90;;;;;;5036836;28;20215;-83
2022/10/11 03:11:58;;;;;;;11.27;3.30;;;7.80;99.90;;;;;;5035948;28;20202;-84
2022/10/11 03:14:25;;;;;;;11.23;3.63;;;7.70;99.90;;;;;;5035335;28;20215;-84
2022/10/11 03:16:52;;;;;;;8.83;3.30;;;7.60;99.90;;;;;;5042383;28;20229;-84
2022/10/11 03:19:19;;;;;;;13.47;3.50;;;7.70;99.90;;;;;;5058142;28;20206;-85
2022/10/11 03:21:47;;;;;;;12.73;3.47;;;7.60;99.90;;;;;;5057249;28;20666;-84
2022/10/11 03:24:14;;;;;;;10.70;3.50;;;7.80;99.90;;;;;;5056800;28;20206;-84
2022/10/11 03:26:41;;;;;;;11.73;3.73;;;7.70;99.90;;;;;;5049647;28;20228;-85
2022/10/11 03:29:07;;;;;;;11.10;3.83;;;7.80;99.90;;;;;;5039794;28;20229;-84
2022/10/11 03:31:34;;;;;;;20.63;10.23;;;7.80;99.90;;;;;;5040693;28;20204;-85
2022/10/11 03:34:01;;;;;;;17.13;6.97;;;7.60;99.90;;;;;;5031167;28;20216;-84
2022/10/11 03:36:28;;;;;;;11.20;2.83;;;7.60;99.90;;;;;;5022494;28;20597;-84
2022/10/11 03:38:56;;;;;;;11.33;3.23;;;7.60;99.90;;;;;;5022272;28;20219;-84
2022/10/11 03:41:23;;;;;;;12.33;4.53;;;7.60;99.90;;;;;;5021959;28;20676;-84
2022/10/11 03:43:50;;;;;;;19.13;8.57;;;7.60;99.90;;;;;;5022843;28;20200;-84
2022/10/11 03:46:16;;;;;;;13.63;3.87;;;7.70;99.90;;;;;;5018082;28;20207;-84
2022/10/11 03:48:43;;;;;;;9.30;3.17;;;7.60;99.90;;;;;;5020285;28;20204;-85
2022/10/11 03:51:11;;;;;;;10.13;3.07;;;7.40;99.90;;;;;;5020604;28;20730;-85
2022/10/11 03:53:39;;;;;;;9.33;2.57;;;7.50;99.90;;;;;;5036753;28;20207;-84
2022/10/11 03:56:07;;;;;;;9.83;3.23;;;7.50;99.90;;;;;;5039919;28;20226;-85
2022/10/11 03:58:34;;;;;;;12.97;2.83;;;7.50;99.90;;;;;;5038828;28;20224;-84
2022/10/11 04:01:01;;;;;;;7.90;2.50;;;7.50;99.90;;;;;;5033194;28;20214;-84
2022/10/11 04:03:28;;;;;;;8.27;2.37;;;7.40;99.90;;;;;;5018481;28;20208;-85
2022/10/11 04:05:55;;;;;;;8.00;2.50;;;7.50;99.90;;;;;;5016332;28;20823;-84
2022/10/11 04:08:21;;;;;;;10.90;3.10;;;7.50;99.90;;;;;;5019172;28;20235;-84
2022/10/11 04:10:48;;;;;;;13.43;3.00;;;7.30;99.90;;;;;;5025720;28;20211;-85
2022/10/11 04:13:17;;;;;;;7.97;2.73;;;7.60;99.90;;;;;;5036298;28;20204;-84
2022/10/11 04:15:43;;;;;;;13.57;2.97;;;7.50;99.90;;;;;;5036124;28;20227;-85
2022/10/11 04:18:11;;;;;;;11.33;2.80;;;7.50;99.90;;;;;;5035171;28;20589;-85
2022/10/11 04:20:37;;;;;;;12.47;3.00;;;7.40;99.90;;;;;;5033811;28;20214;-85
2022/10/11 04:23:04;;;;;;;11.07;3.57;;;7.50;99.90;;;;;;5035520;28;20207;-85
2022/10/11 04:25:31;;;;;;;39.90;24.87;;;7.40;99.90;;;;;;5034244;28;20206;-84
2022/10/11 04:27:58;;;;;;;11.30;3.50;;;7.30;99.90;;;;;;5021551;28;20709;-84
2022/10/11 04:30:27;;;;;;;12.53;3.13;;;7.30;99.90;;;;;;5015596;28;20204;-85
2022/10/11 04:32:54;;;;;;;10.13;2.60;;;7.30;99.90;;;;;;5013810;28;20585;-85
2022/10/11 04:35:20;;;;;;;11.27;2.93;;;7.40;99.90;;;;;;5019304;28;20258;-85
2022/10/11 04:37:47;;;;;;;13.03;4.00;;;7.30;99.90;;;;;;5035531;28;20223;-84
2022/10/11 04:40:14;;;;;;;6.70;3.03;;;7.40;99.90;;;;;;5035456;28;20686;-85
2022/10/11 04:42:41;;;;;;;10.13;2.77;;;7.40;99.90;;;;;;5033853;28;20550;-85
2022/10/11 04:45:09;;;;;;;10.73;3.93;;;7.30;99.90;;;;;;5033540;28;20198;-85
2022/10/11 04:47:39;;;;;;;9.00;3.57;;;7.40;99.90;;;;;;5034473;28;20216;-85
2022/10/11 04:50:06;;;;;;;9.43;3.37;;;7.40;99.90;;;;;;5034032;28;20245;-85
2022/10/11 04:52:33;;;;;;;12.57;3.50;;;7.30;99.90;;;;;;5034010;28;20203;-84
2022/10/11 04:55:00;;;;;;;9.80;3.40;;;7.30;99.90;;;;;;5033611;28;20216;-85
2022/10/11 04:57:27;;;;;;;13.53;3.43;;;7.30;99.90;;;;;;5033345;28;20230;-85
2022/10/11 04:59:53;;;;;;;10.00;4.20;;;7.30;99.90;;;;;;5033999;28;20655;-84
2022/10/11 05:02:20;;;;;;;16.37;4.50;;;7.30;99.90;;;;;;5034778;28;20204;-84
2022/10/11 05:04:48;;;;;;;10.33;3.73;;;7.40;99.90;;;;;;5032941;28;20214;-84
2022/10/11 05:07:15;;;;;;;9.13;3.10;;;7.30;99.90;;;;;;5034183;28;20230;-85
2022/10/11 05:09:42;;;;;;;14.00;3.07;;;7.30;99.90;;;;;;5034706;28;20671;-84
2022/10/11 05:12:09;;;;;;;7.20;3.10;;;7.30;99.90;;;;;;5034443;28;20214;-85
2022/10/11 05:14:36;;;;;;;7.47;3.00;;;7.20;99.90;;;;;;5034131;28;20192;-85
2022/10/11 05:17:03;;;;;;;12.37;3.20;;;7.10;99.90;;;;;;5027117;28;20286;-85
2022/10/11 05:19:30;;;;;;;12.83;4.20;;;7.10;99.90;;;;;;5014655;28;20204;-85
2022/10/11 05:21:58;;;;;;;12.97;3.93;;;7.20;99.90;;;;;;5024504;28;20215;-85
2022/10/11 05:24:25;;;;;;;10.13;3.20;;;7.00;99.90;;;;;;5033265;28;20238;-84
2022/10/11 05:26:51;;;;;;;7.50;3.40;;;7.00;99.90;;;;;;5034431;28;20580;-85
2022/10/11 05:29:18;;;;;;;8.77;3.50;;;7.10;99.90;;;;;;5035371;28;20204;-84
2022/10/11 05:31:45;;;;;;;10.20;3.43;;;7.10;99.90;;;;;;5034871;28;20657;-84
2022/10/11 05:34:12;;;;;;;11.53;3.60;;;7.20;99.90;;;;;;5039080;28;20604;-84
2022/10/11 05:36:38;;;;;;;10.13;4.20;;;7.10;99.90;;;;;;5038051;28;20246;-84
2022/10/11 05:39:06;;;;;;;13.23;3.83;;;7.10;99.90;;;;;;5038187;28;20204;-84
2022/10/11 05:41:33;;;;;;;8.47;3.57;;;7.20;99.90;;;;;;5037772;28;20211;-85
2022/10/11 05:44:00;;;;;;;12.80;4.30;;;7.30;99.90;;;;;;5037872;28;20841;-84
2022/10/11 05:46:27;;;;;;;9.40;3.73;;;7.20;99.90;;;;;;5035034;28;20199;-84
2022/10/11 05:48:53;;;;;;;11.97;4.17;;;7.20;99.90;;;;;;5036672;28;20207;-84
2022/10/11 05:51:20;;;;;;;11.47;4.10;;;7.40;99.90;;;;;;5037520;28;20259;-85
2022/10/11 05:53:48;;;;;;;15.33;4.80;;;7.30;99.90;;;;;;5037130;28;20211;-84
2022/10/11 05:56:21;;;;;;;10.30;4.03;;;7.50;99.90;;;;;;5037256;28;20227;-84
2022/10/11 05:58:48;;;;;;;11.37;3.60;;;7.40;99.90;;;;;;5037891;28;20210;-84
2022/10/11 06:01:19;;;;;;;11.83;4.67;;;7.30;99.90;;;;;;5036492;28;20294;-85
2022/10/11 06:03:46;;;;;;;13.57;3.70;;;7.30;99.90;;;;;;5037221;28;20196;-84
2022/10/11 06:06:13;;;;;;;10.33;4.07;;;7.40;99.90;;;;;;5037139;28;20295;-84
2022/10/11 06:08:40;;;;;;;12.03;5.23;;;7.50;99.90;;;;;;5036661;28;20549;-86
2022/10/11 06:11:12;;;;;;;12.90;4.53;;;7.50;99.90;;;;;;5036588;28;20203;-84
2022/10/11 06:13:41;;;;;;;12.50;4.27;;;7.50;99.90;;;;;;5037046;28;20366;-84
2022/10/11 06:16:08;;;;;;;15.17;4.57;;;7.60;99.90;;;;;;5037478;28;20314;-84
2022/10/11 06:18:35;;;;;;;15.30;5.23;;;7.50;99.90;;;;;;5037473;28;20215;-84
2022/10/11 06:21:02;;;;;;;10.90;4.40;;;7.50;99.90;;;;;;5031597;28;20299;-85
2022/10/11 06:23:29;;;;;;;15.43;4.67;;;7.50;99.90;;;;;;5016563;28;20212;-85
2022/10/11 06:25:57;;;;;;;15.73;4.50;;;7.50;99.90;;;;;;5016054;28;20210;-84
2022/10/11 06:28:24;;;;;;;11.23;4.60;;;7.60;99.90;;;;;;5017017;28;20232;-85
2022/10/11 06:30:52;;;;;;;14.53;4.73;;;7.50;99.90;;;;;;5016829;28;20200;-85
2022/10/11 06:33:19;;;;;;;13.67;4.70;;;7.60;99.90;;;;;;5015298;28;20211;-84
2022/10/11 06:35:46;;;;;;;13.80;4.60;;;7.70;99.90;;;;;;5017396;28;20228;-84
2022/10/11 06:38:12;;;;;;;16.83;4.70;;;7.70;99.90;;;;;;5016716;28;20228;-85
2022/10/11 06:40:39;;;;;;;13.33;4.57;;;7.80;99.90;;;;;;5016791;28;20208;-86
2022/10/11 06:43:06;;;;;;;13.07;4.37;;;7.70;99.90;;;;;;5034984;28;20195;-85
2022/10/11 06:45:33;;;;;;;12.37;5.10;;;7.80;99.90;;;;;;5034975;28;20195;-84
2022/10/11 06:48:04;;;;;;;13.90;4.57;;;7.90;99.90;;;;;;5029633;28;20249;-85
2022/10/11 06:50:31;;;;;;;15.00;5.00;;;8.00;99.90;;;;;;5024244;28;20239;-84
2022/10/11 06:52:58;;;;;;;13.07;4.90;;;8.00;99.90;;;;;;5017072;28;20695;-85
2022/10/11 06:55:25;;;;;;;12.47;4.50;;;8.10;99.90;;;;;;5014466;28;20212;-86
2022/10/11 06:57:52;;;;;;;14.67;4.87;;;8.10;99.90;;;;;;5033542;28;20237;-84
2022/10/11 07:00:20;;;;;;;12.00;4.70;;;8.10;99.90;;;;;;5036790;28;20290;-84
2022/10/11 07:02:48;;;;;;;11.47;4.87;;;8.10;99.90;;;;;;5035156;28;20206;-85
2022/10/11 07:05:17;;;;;;;14.23;4.83;;;8.30;99.90;;;;;;5030161;28;20249;-85
2022/10/11 07:07:43;;;;;;;13.33;5.60;;;8.30;99.90;;;;;;5020283;28;20224;-85
2022/10/11 07:10:10;;;;;;;12.47;5.70;;;8.40;99.90;;;;;;5016786;28;20573;-84
2022/10/11 07:12:37;;;;;;;13.10;5.53;;;8.60;99.90;;;;;;5033850;28;20206;-84
2022/10/11 07:15:05;;;;;;;13.33;5.20;;;8.60;99.90;;;;;;5036437;28;20635;-85
2022/10/11 07:17:32;;;;;;;14.47;5.70;;;8.60;99.90;;;;;;5035693;28;20687;-84
2022/10/11 07:19:58;;;;;;;12.70;5.20;;;8.70;99.90;;;;;;5017987;28;20212;-84
2022/10/11 07:22:28;;;;;;;18.27;5.60;;;8.80;99.90;;;;;;5015529;28;20210;-85
2022/10/11 07:24:55;;;;;;;14.70;5.10;;;8.90;99.90;;;;;;5046836;28;20222;-84
2022/10/11 07:27:22;;;;;;;15.00;5.03;;;9.00;99.90;;;;;;5036863;28;20771;-85
2022/10/11 07:29:50;;;;;;;14.07;4.80;;;9.10;99.90;;;;;;5034706;28;20196;-86
2022/10/11 07:32:16;;;;;;;12.93;5.73;;;9.10;99.90;;;;;;5035990;28;20227;-85
2022/10/11 07:34:43;;;;;;;18.70;5.63;;;9.20;99.90;;;;;;5036161;28;20204;-84
2022/10/11 07:37:10;;;;;;;13.33;5.17;;;9.30;99.90;;;;;;5023427;28;20236;-85
2022/10/11 07:39:38;;;;;;;15.27;4.87;;;9.40;99.90;;;;;;5016369;28;20220;-85
2022/10/11 07:42:05;;;;;;;12.87;5.13;;;9.40;99.90;;;;;;5026538;28;20294;-85
2022/10/11 07:44:33;;;;;;;17.97;5.20;;;9.50;99.90;;;;;;5035756;28;20204;-85
2022/10/11 07:47:00;;;;;;;16.17;5.57;;;9.50;99.90;;;;;;5036244;28;20223;-84
2022/10/11 07:49:26;;;;;;;12.67;5.00;;;9.70;99.90;;;;;;5036519;28;20207;-85
2022/10/11 07:51:53;;;;;;;13.73;4.37;;;9.70;99.90;;;;;;5032634;28;20220;-84
2022/10/11 07:54:20;;;;;;;17.17;4.60;;;9.80;99.90;;;;;;5016482;28;20210;-85
2022/10/11 07:56:48;;;;;;;11.97;4.40;;;10.00;99.90;;;;;;5015584;28;20228;-85
2022/10/11 07:59:15;;;;;;;13.30;4.63;;;10.10;99.90;;;;;;5028282;28;20225;-85
2022/10/11 08:01:41;;;;;;;16.57;5.00;;;10.10;99.90;;;;;;5033793;28;20199;-84
2022/10/11 08:04:08;;;;;;;18.77;4.70;;;10.10;99.90;;;;;;5034072;28;20204;-85
2022/10/11 08:06:36;;;;;;;14.43;5.00;;;10.10;99.90;;;;;;5034848;28;20223;-85
2022/10/11 08:09:04;;;;;;;13.87;4.23;;;10.30;99.90;;;;;;5026570;28;20203;-84
2022/10/11 08:11:33;;;;;;;14.40;4.40;;;10.40;99.90;;;;;;5032646;28;20211;-84
2022/10/11 08:14:03;;;;;;;12.27;4.20;;;10.40;99.90;;;;;;5022702;28;20218;-85
2022/10/11 08:16:30;;;;;;;20.70;5.60;;;10.60;99.90;;;;;;5034471;28;20234;-85
2022/10/11 08:18:56;;;;;;;15.63;4.40;;;10.50;99.90;;;;;;5034031;28;20207;-84
2022/10/11 08:21:25;;;;;;;12.57;3.93;;;10.50;99.90;;;;;;5015991;28;20209;-84
2022/10/11 08:23:52;;;;;;;13.73;4.77;;;10.50;99.90;;;;;;5014630;28;20212;-85
2022/10/11 08:26:19;;;;;;;13.30;3.77;;;10.50;99.90;;;;;;5035885;28;20299;-84
2022/10/11 08:28:45;;;;;;;18.63;4.23;;;10.60;99.90;;;;;;5038120;28;20222;-85
2022/10/11 08:31:15;;;;;;;15.37;4.33;;;10.60;99.90;;;;;;5035650;28;20199;-84
2022/10/11 08:33:42;;;;;;;22.83;5.00;;;10.60;99.90;;;;;;5032694;28;20210;-85
2022/10/11 08:36:10;;;;;;;14.67;4.20;;;10.70;99.90;;;;;;5026859;28;20239;-84
2022/10/11 08:38:37;;;;;;;13.40;4.30;;;10.80;99.90;;;;;;5035076;28;20699;-85
2022/10/11 08:41:24;;;;;;;12.70;4.27;;;10.80;99.90;;;;;;5035082;28;20298;-85
2022/10/11 08:44:01;;;;;;;14.60;3.97;;;10.90;99.90;;;;;;5035501;28;20204;-85
2022/10/11 08:46:32;;;;;;;12.77;3.70;;;10.90;99.90;;;;;;5029112;28;20578;-85
2022/10/11 08:49:01;;;;;;;11.70;4.03;;;11.00;99.90;;;;;;5013960;28;20204;-85
2022/10/11 08:51:32;;;;;;;12.40;3.80;;;11.20;99.90;;;;;;5022656;28;20196;-85
2022/10/11 08:54:04;;;;;;;15.67;5.07;;;11.10;99.90;;;;;;5035169;28;20218;-85
2022/10/11 08:56:32;;;;;;;11.93;5.17;;;11.20;99.90;;;;;;5034803;28;20223;-85
2022/10/11 08:59:04;;;;;;;13.43;4.30;;;11.40;99.90;;;;;;5024958;28;20223;-85
2022/10/11 09:01:32;;;;;;;21.77;4.50;;;11.40;99.90;;;;;;5023715;28;20212;-85
2022/10/11 09:03:59;;;;;;;16.13;5.00;;;11.50;99.90;;;;;;5017216;28;20219;-85
2022/10/11 09:06:37;;;;;;;10.03;4.10;;;11.70;99.90;;;;;;5019632;28;20694;-85
2022/10/11 09:09:38;;;;;;;11.60;4.80;;;11.90;99.90;;;;;;5035592;28;20210;-84
2022/10/11 09:12:15;;;;;;;10.33;3.90;;;11.80;99.90;;;;;;5007060;28;20219;-85
2022/10/11 09:15:00;;;;;;;10.67;3.37;;;11.90;99.90;;;;;;5017135;28;20667;-85
2022/10/11 09:17:47;;;;;;;16.70;4.53;;;11.90;99.90;;;;;;5031100;28;20223;-85
2022/10/11 09:20:37;;;;;;;9.37;3.70;;;12.00;99.90;;;;;;5025715;28;20200;-85
2022/10/11 09:23:20;;;;;;;10.97;4.03;;;12.10;99.90;;;;;;5014394;28;20224;-84
2022/10/11 09:25:54;;;;;;;13.07;3.90;;;12.00;99.90;;;;;;5013543;28;20668;-85
2022/10/11 09:28:29;;;;;;;10.30;4.23;;;12.20;99.90;;;;;;5026186;28;20216;-85
2022/10/11 09:30:57;;;;;;;12.27;3.63;;;12.30;99.90;;;;;;5038341;28;20203;-85
2022/10/11 09:33:33;;;;;;;9.30;3.37;;;12.50;99.90;;;;;;5030523;28;20579;-85
2022/10/11 09:36:01;;;;;;;14.60;4.13;;;12.60;99.90;;;;;;5030759;28;20551;-85
2022/10/11 09:38:39;;;;;;;10.27;3.07;;;12.70;99.90;;;;;;5031396;28;20223;-85
2022/10/11 09:41:16;;;;;;;10.93;2.83;;;13.00;99.90;;;;;;5031529;28;20215;-85
2022/10/11 09:43:47;;;;;;;14.83;2.77;;;13.10;99.90;;;;;;5032610;28;20203;-85
2022/10/11 09:46:20;;;;;;;6.93;2.23;;;13.40;99.90;;;;;;5034009;28;20215;-85
2022/10/11 09:48:50;;;;;;;9.80;2.73;;;13.60;99.90;;;;;;5015531;28;20212;-85
2022/10/11 09:51:21;;;;;;;7.90;2.20;;;13.80;99.90;;;;;;5014709;28;20212;-85
2022/10/11 09:53:57;;;;;;;11.83;2.53;;;13.80;99.90;;;;;;5033082;28;20697;-85
2022/10/11 09:56:25;;;;;;;10.93;3.37;;;14.10;99.90;;;;;;5031495;28;20210;-85
2022/10/11 09:59:19;;;;;;;12.47;3.10;;;14.40;99.90;;;;;;5033858;28;20200;-87
2022/10/11 10:01:46;;;;;;;10.77;3.00;;;14.30;1.00;;;;;;5033234;28;20230;-86
2022/10/11 10:04:17;;;;;;;9.13;1.90;;;14.50;99.90;;;;;;5034866;28;20214;-85
2022/10/11 10:06:43;;;;;;;10.60;2.70;;;14.60;1.00;;;;;;5034289;28;20266;-84
2022/10/11 10:09:27;;;;;;;6.00;2.10;;;14.90;1.00;;;;;;5034549;28;20214;-85
2022/10/11 10:11:55;;;;;;;10.93;2.40;;;15.10;1.00;;;;;;5034216;28;20254;-86
2022/10/11 10:14:25;;;;;;;9.53;2.73;;;15.10;1.00;;;;;;5036755;28;20204;-86
2022/10/11 10:17:01;;;;;;;10.70;2.43;;;15.40;1.00;;;;;;5037281;28;20231;-86
2022/10/11 10:19:32;;;;;;;7.50;2.38;;;15.50;1.00;;;;;;5037948;28;20207;-85
2022/10/11 10:21:58;;;;;;;9.87;2.57;;;15.60;99.90;;;;;;5038375;28;20210;-85
2022/10/11 10:24:35;;;;;;;10.48;2.45;;;15.60;27.20;;;;;;5038406;28;20216;-85
2022/10/11 10:27:15;;;;;;;9.27;2.00;;;15.40;99.90;;;;;;5038414;28;20637;-86
2022/10/11 10:29:42;;;;;;;11.05;2.38;;;15.40;99.90;;;;;;5038277;28;20199;-85
2022/10/11 10:32:12;;;;;;;9.67;2.00;;;15.60;1.00;;;;;;5038089;28;20216;-86
2022/10/11 10:34:51;;;;;;;11.55;2.33;;;15.70;1.00;;;;;;5036394;28;20686;-86
2022/10/11 10:37:25;;;;;;;11.85;2.17;;;15.80;1.00;;;;;;5037844;28;20226;-86
2022/10/11 10:39:55;;;;;;;7.75;1.98;;;16.00;62.60;;;;;;5037872;28;20191;-85
2022/10/11 10:42:22;;;;;;;7.43;2.05;;;16.00;1.00;;;;;;5038527;28;20207;-86
2022/10/11 10:44:52;;;;;;;10.88;2.55;;;15.90;1.00;;;;;;5037542;28;20210;-86
2022/10/11 10:47:38;;;;;;;8.27;1.95;;;15.90;1.00;;;;;;5037115;28;20242;-86
2022/10/11 10:50:13;;;;;;;7.60;1.95;;;16.50;1.00;;;;;;5037484;28;20214;-86
2022/10/11 10:52:49;;;;;;;11.52;2.00;;;16.40;1.00;;;;;;5036460;28;20222;-85
2022/10/11 10:55:28;;;;;;;7.45;1.70;;;15.70;1.00;;;;;;5037180;28;20203;-86
2022/10/11 10:58:16;;;;;;;7.82;1.75;;;16.10;1.00;;;;;;5036305;28;20237;-84
2022/10/11 11:00:46;;;;;;;8.48;1.90;;;15.90;1.00;;;;;;5035591;28;20211;-86
2022/10/11 11:03:20;;;;;;;6.55;1.80;;;16.00;1.00;;;;;;5036841;28;20199;-86
2022/10/11 11:05:57;;;;;;;9.15;1.90;;;15.90;1.00;;;;;;5036560;28;20275;-86
2022/10/11 11:08:37;;;;;;;9.48;2.05;;;16.10;1.00;;;;;;5037167;28;20223;-86
2022/10/11 11:11:14;;;;;;;9.45;1.98;;;15.80;1.00;;;;;;5035904;28;20211;-85
2022/10/11 11:13:50;;;;;;;10.05;2.17;;;16.00;1.00;;;;;;5036098;28;20211;-86
2022/10/11 11:16:33;;;;;;;7.45;2.03;;;16.00;1.00;;;;;;5040790;28;20214;-86
2022/10/11 11:19:10;;;;;;;7.55;1.90;;;16.10;99.90;;;;;;5044206;28;20214;-86
2022/10/11 11:21:48;;;;;;;4.70;1.90;;;16.20;99.90;;;;;;5046790;28;20203;-86
2022/10/11 11:24:23;;;;;;;7.18;1.70;;;16.20;99.90;;;;;;5045413;28;20243;-86
2022/10/11 11:26:56;;;;;;;8.35;1.95;;;16.10;99.90;;;;;;5049382;28;20310;-86
2022/10/11 11:29:38;;;;;;;9.45;2.10;;;16.40;99.90;;;;;;5044304;28;20214;-87
2022/10/11 11:32:18;;;;;;;7.28;1.40;;;16.50;95.10;;;;;;5028812;28;20199;-87
2022/10/11 11:34:49;;;;;;;10.70;3.60;;;16.40;99.90;;;;;;5036588;28;20247;-86
2022/10/11 11:37:25;;;;;;;9.63;1.90;;;16.60;99.90;;;;;;5032979;28;20319;-87
2022/10/11 11:39:57;;;;;;;7.82;1.80;;;16.70;99.90;;;;;;5039113;28;20296;-85
2022/10/11 11:42:30;;;;;;;8.75;2.00;;;16.80;99.90;;;;;;5037484;28;20275;-86
2022/10/11 11:45:03;;;;;;;10.25;2.15;;;16.30;99.20;;;;;;5018527;28;20213;-85
2022/10/11 11:47:35;;;;;;;9.23;2.00;;;16.30;99.90;;;;;;5018887;28;20235;-85
2022/10/11 11:50:05;;;;;;;5.70;1.40;;;16.30;99.70;;;;;;5016642;28;20218;-85
2022/10/11 11:52:37;;;;;;;3.25;1.35;;;16.50;99.90;;;;;;5016205;28;20211;-85
2022/10/11 11:55:11;;;;;;;9.75;1.52;;;16.50;1.00;;;;;;5016802;28;20210;-86
2022/10/11 11:57:53;;;;;;;6.72;1.38;;;16.20;1.00;;;;;;5034461;28;20301;-86
2022/10/11 12:00:23;;;;;;;7.97;1.13;;;16.10;1.00;;;;;;5036890;28;20229;-85
2022/10/11 12:02:53;;;;;;;10.05;1.55;;;16.10;1.00;;;;;;5041567;28;20203;-85
2022/10/11 12:05:23;;;;;;;8.88;1.45;;;16.20;1.00;;;;;;5044388;28;20268;-86
2022/10/11 12:07:57;;;;;;;9.73;1.95;;;16.10;1.00;;;;;;5030780;28;20219;-85
2022/10/11 12:10:34;;;;;;;8.57;1.92;;;16.10;1.00;;;;;;5023578;28;20287;-85
2022/10/11 12:13:16;;;;;;;6.78;1.92;;;16.10;1.00;;;;;;5019475;28;20223;-85
2022/10/11 12:15:57;;;;;;;10.80;1.58;;;16.30;1.00;;;;;;5015704;28;20640;-86
2022/10/11 12:18:24;;;;;;;10.13;1.95;;;16.30;1.00;;;;;;5029253;28;20237;-85
2022/10/11 12:21:02;;;;;;;8.82;2.40;;;16.40;1.00;;;;;;5038657;28;20238;-86
2022/10/11 12:23:48;;;;;;;8.88;2.33;;;16.10;1.00;;;;;;5043729;28;20207;-85
2022/10/11 12:26:31;;;;;;;7.88;1.67;;;15.90;1.00;;;;;;5040490;28;20263;-85
2022/10/11 12:29:34;;;;;;;9.57;2.20;;;16.30;1.00;;;;;;5036803;28;20675;-84
2022/10/11 12:32:52;;;;;;;6.80;1.40;;;15.90;1.00;;;;;;5029405;28;20251;-85
2022/10/11 12:35:41;;;;;;;5.28;1.75;;;16.00;1.00;;;;;;5036132;28;20230;-86
2022/10/11 12:38:16;;;;;;;5.18;1.63;;;16.00;1.00;;;;;;5035079;28;20231;-86
2022/10/11 12:40:46;;;;;;;4.32;1.45;;;15.90;1.00;;;;;;5035054;28;20191;-85
2022/10/11 12:43:36;;;;;;;6.88;1.80;;;16.00;1.00;;;;;;5036032;28;20269;-86
2022/10/11 12:46:41;;;;;;;11.05;2.53;;;16.00;1.00;;;;;;5034166;28;20191;-86
2022/10/11 12:49:22;;;;;;;8.77;1.85;;;16.00;1.00;;;;;;5018930;28;20200;-86
2022/10/11 12:51:58;;;;;;;6.70;1.65;;;15.80;1.00;;;;;;5034646;28;20188;-86
2022/10/11 12:55:09;;;;;;;6.30;2.45;;;15.60;99.90;;;;;;5042163;28;20207;-86
2022/10/11 12:58:23;;;;;;;11.13;2.15;;;15.30;99.90;;;;;;5027115;28;20223;-85
2022/10/11 13:01:28;;;;;;;6.95;1.40;;;15.40;1.00;;;;;;5031939;28;20200;-85
2022/10/11 13:04:01;;;;;;;6.57;1.90;;;15.50;99.90;;;;;;5035000;28;20200;-85
2022/10/11 13:06:31;;;;;;;5.85;1.55;;;15.40;99.90;;;;;;5035653;28;20214;-86
2022/10/11 13:09:04;;;;;;;7.80;1.63;;;15.60;99.90;;;;;;5034052;28;20275;-86
2022/10/11 13:11:35;;;;;;;3.53;1.20;;;15.50;99.90;;;;;;5034011;28;20691;-86